createdAt,value
2018-11-27T00:00:41.270Z,28.10
2018-11-27T00:03:09.899Z,28.90
2018-11-27T00:05:38.946Z,27.70
2018-11-27T00:08:07.761Z,29.73
2018-11-27T00:10:37.884Z,27.17
2018-11-27T00:13:06.460Z,29.93
2018-11-27T00:15:34.779Z,36.63
2018-11-27T00:18:03.329Z,46.10
2018-11-27T00:20:31.913Z,38.07
2018-11-27T00:23:00.191Z,31.63
2018-11-27T00:25:30.606Z,26.43
2018-11-27T00:27:59.148Z,26.93
2018-11-27T00:30:27.557Z,28.73
2018-11-27T00:32:56.073Z,27.67
2018-11-27T00:35:24.434Z,25.63
2018-11-27T00:37:52.768Z,26.40
2018-11-27T00:40:22.884Z,28.17
2018-11-27T00:42:51.641Z,26.80
2018-11-27T00:45:20.949Z,26.07
2018-11-27T00:47:50.100Z,26.57
2018-11-27T00:50:20.440Z,27.13
2018-11-27T00:52:48.807Z,27.30
2018-11-27T00:55:18.258Z,25.40
2018-11-27T00:57:47.600Z,23.90
2018-11-27T01:00:19.031Z,26.90
2018-11-27T01:02:47.412Z,24.63
2018-11-27T01:05:18.145Z,25.87
2018-11-27T01:07:46.688Z,24.63
2018-11-27T01:10:19.925Z,25.87
2018-11-27T01:12:48.250Z,26.27
2018-11-27T01:15:16.742Z,26.37
2018-11-27T01:17:47.083Z,25.63
2018-11-27T01:20:16.566Z,23.33
2018-11-27T01:22:44.977Z,27.13
2018-11-27T01:25:13.436Z,26.03
2018-11-27T01:27:41.827Z,25.17
2018-11-27T01:30:15.215Z,26.07
2018-11-27T01:32:43.616Z,23.83
2018-11-27T01:35:15.904Z,24.17
2018-11-27T01:37:44.346Z,26.27
2018-11-27T01:40:14.211Z,26.53
2018-11-27T01:42:42.591Z,26.50
2018-11-27T01:45:12.152Z,24.10
2018-11-27T01:47:40.524Z,29.67
2018-11-27T01:50:11.153Z,44.13
2018-11-27T01:52:39.620Z,29.63
2018-11-27T01:55:11.477Z,25.57
2018-11-27T01:57:39.763Z,27.10
2018-11-27T02:00:16.214Z,23.97
2018-11-27T02:02:44.727Z,25.60
2018-11-27T02:05:13.319Z,26.80
2018-11-27T02:07:41.662Z,25.70
2018-11-27T02:10:11.222Z,24.53
2018-11-27T02:12:40.156Z,27.17
2018-11-27T02:15:11.335Z,25.77
2018-11-27T02:17:39.626Z,22.60
2018-11-27T02:20:09.705Z,27.60
2018-11-27T02:22:38.018Z,26.00
2018-11-27T02:25:16.111Z,26.43
2018-11-27T02:27:44.493Z,23.37
2018-11-27T02:30:15.123Z,24.70
2018-11-27T02:32:43.465Z,25.50
2018-11-27T02:35:14.074Z,24.60
2018-11-27T02:37:42.434Z,31.73
2018-11-27T02:40:12.784Z,26.33
2018-11-27T02:42:41.429Z,28.17
2018-11-27T02:45:11.695Z,25.80
2018-11-27T02:47:40.442Z,25.93
2018-11-27T02:50:12.025Z,25.73
2018-11-27T02:52:40.403Z,24.90
2018-11-27T02:55:17.125Z,24.07
2018-11-27T02:57:45.506Z,26.40
2018-11-27T03:00:17.074Z,24.20
2018-11-27T03:02:45.539Z,25.97
2018-11-27T03:05:17.670Z,24.87
2018-11-27T03:07:46.268Z,22.47
2018-11-27T03:10:15.366Z,25.30
2018-11-27T03:12:43.777Z,25.87
2018-11-27T03:15:14.201Z,24.87
2018-11-27T03:17:42.594Z,26.27
2018-11-27T03:20:11.895Z,25.97
2018-11-27T03:22:40.270Z,24.57
2018-11-27T03:25:12.625Z,26.90
2018-11-27T03:27:41.000Z,25.63
2018-11-27T03:30:12.308Z,25.73
2018-11-27T03:32:40.724Z,25.07
2018-11-27T03:35:16.857Z,25.87
2018-11-27T03:37:47.267Z,24.83
2018-11-27T03:40:20.482Z,28.50
2018-11-27T03:42:48.914Z,25.07
2018-11-27T03:45:18.069Z,24.97
2018-11-27T03:47:46.489Z,27.13
2018-11-27T03:50:15.928Z,22.63
2018-11-27T03:52:44.311Z,24.23
2018-11-27T03:55:13.031Z,26.00
2018-11-27T03:57:41.511Z,26.53
2018-11-27T04:00:15.392Z,26.40
2018-11-27T04:02:44.104Z,23.87
2018-11-27T04:05:13.022Z,25.80
2018-11-27T04:07:41.356Z,23.87
2018-11-27T04:10:14.280Z,25.10
2018-11-27T04:12:42.672Z,24.63
2018-11-27T04:15:11.841Z,23.67
2018-11-27T04:17:40.342Z,25.13
2018-11-27T04:20:09.873Z,24.03
2018-11-27T04:22:39.438Z,23.97
2018-11-27T04:25:10.039Z,24.03
2018-11-27T04:27:38.542Z,24.83
2018-11-27T04:30:09.251Z,25.97
2018-11-27T04:32:37.574Z,24.97
2018-11-27T04:35:06.418Z,25.63
2018-11-27T04:37:35.093Z,23.30
2018-11-27T04:40:03.801Z,23.00
2018-11-27T04:42:32.430Z,23.30
2018-11-27T04:45:00.908Z,23.67
2018-11-27T04:47:29.647Z,25.57
2018-11-27T04:49:57.907Z,24.87
2018-11-27T04:52:26.251Z,22.87
2018-11-27T04:54:54.527Z,24.73
2018-11-27T04:57:23.109Z,23.07
2018-11-27T04:59:51.459Z,22.27
2018-11-27T05:02:19.883Z,24.23
2018-11-27T05:04:48.126Z,24.07
2018-11-27T05:07:16.544Z,21.70
2018-11-27T05:09:44.885Z,22.80
2018-11-27T05:12:13.288Z,22.17
2018-11-27T05:14:41.667Z,21.23
2018-11-27T05:17:10.067Z,22.73
2018-11-27T05:19:38.538Z,23.97
2018-11-27T05:22:06.912Z,23.23
2018-11-27T05:24:35.208Z,19.30
2018-11-27T05:27:03.669Z,22.57
2018-11-27T05:29:32.092Z,23.73
2018-11-27T05:32:00.453Z,23.87
2018-11-27T05:34:28.805Z,24.93
2018-11-27T05:36:57.298Z,23.10
2018-11-27T05:39:25.646Z,23.20
2018-11-27T05:41:54.055Z,22.03
2018-11-27T05:44:23.196Z,21.57
2018-11-27T05:46:51.501Z,20.73
2018-11-27T05:49:19.868Z,21.53
2018-11-27T05:51:48.136Z,20.97
2018-11-27T05:54:16.490Z,23.20
2018-11-27T05:56:44.806Z,25.23
2018-11-27T05:59:13.162Z,21.63
2018-11-27T06:01:41.668Z,23.27
2018-11-27T06:04:10.030Z,20.70
2018-11-27T06:06:38.395Z,19.47
2018-11-27T06:09:09.802Z,22.13
2018-11-27T06:11:38.821Z,23.33
2018-11-27T06:14:07.362Z,19.90
2018-11-27T06:16:35.871Z,19.37
2018-11-27T06:19:04.324Z,24.67
2018-11-27T06:21:33.020Z,23.93
2018-11-27T06:24:01.789Z,23.07
2018-11-27T06:26:30.179Z,24.43
2018-11-27T06:28:58.639Z,21.77
2018-11-27T06:31:27.042Z,24.77
2018-11-27T06:33:55.398Z,21.93
2018-11-27T06:36:23.763Z,22.80
2018-11-27T06:38:53.209Z,24.17
2018-11-27T06:41:21.829Z,20.80
2018-11-27T06:43:50.678Z,24.13
2018-11-27T06:46:19.052Z,21.23
2018-11-27T06:48:47.460Z,18.93
2018-11-27T06:51:15.904Z,59.47
2018-11-27T06:53:44.296Z,86.10
2018-11-27T06:56:12.742Z,33.07
2018-11-27T06:58:41.219Z,22.77
2018-11-27T07:01:09.988Z,20.50
2018-11-27T07:03:41.606Z,19.57
2018-11-27T07:06:11.390Z,22.53
2018-11-27T07:08:39.896Z,20.00
2018-11-27T07:11:09.578Z,22.47
2018-11-27T07:13:38.082Z,28.17
2018-11-27T07:16:07.508Z,41.27
2018-11-27T07:18:35.944Z,22.40
2018-11-27T07:21:04.537Z,20.43
2018-11-27T07:23:33.016Z,17.87
2018-11-27T07:26:01.353Z,17.90
2018-11-27T07:28:29.784Z,15.13
2018-11-27T07:30:58.236Z,19.07
2018-11-27T07:33:26.984Z,20.37
2018-11-27T07:35:55.947Z,53.33
2018-11-27T07:38:24.642Z,44.27
2018-11-27T07:40:54.173Z,28.17
2018-11-27T07:43:22.763Z,20.00
2018-11-27T07:45:55.210Z,23.27
2018-11-27T07:48:19.988Z,26.07
2018-11-27T07:50:48.446Z,19.40
2018-11-27T07:53:17.176Z,17.93
2018-11-27T07:55:45.850Z,21.50
2018-11-27T07:58:14.176Z,20.47
2018-11-27T08:00:42.710Z,19.43
2018-11-27T08:03:11.425Z,19.87
2018-11-27T08:05:41.027Z,20.03
2018-11-27T08:08:13.057Z,18.20
2018-11-27T08:10:41.987Z,23.17
2018-11-27T08:13:11.026Z,42.90
2018-11-27T08:15:39.813Z,85.10
2018-11-27T08:18:10.842Z,37.30
2018-11-27T08:20:39.854Z,25.87
2018-11-27T08:23:09.336Z,20.30
2018-11-27T08:25:38.701Z,20.53
2018-11-27T08:28:07.491Z,17.87
2018-11-27T08:30:35.950Z,19.97
2018-11-27T08:33:04.633Z,18.47
2018-11-27T08:35:33.133Z,19.40
2018-11-27T08:38:01.963Z,20.07
2018-11-27T08:40:32.665Z,17.40
2018-11-27T08:43:02.394Z,17.83
2018-11-27T08:45:30.966Z,18.47
2018-11-27T08:47:59.546Z,19.97
2018-11-27T08:50:28.617Z,17.83
2018-11-27T08:53:05.245Z,16.60
2018-11-27T08:55:42.258Z,48.30
2018-11-27T08:58:16.066Z,73.43
2018-11-27T09:00:44.748Z,29.13
2018-11-27T09:03:13.086Z,25.47
2018-11-27T09:05:41.553Z,20.73
2018-11-27T09:08:09.929Z,40.50
2018-11-27T09:10:38.359Z,42.23
2018-11-27T09:13:07.199Z,21.73
2018-11-27T09:15:35.861Z,19.20
2018-11-27T09:18:13.989Z,18.57
2018-11-27T09:20:42.436Z,16.27
2018-11-27T09:23:12.240Z,18.00
2018-11-27T09:25:41.577Z,18.40
2018-11-27T09:28:09.953Z,18.87
2018-11-27T09:30:38.397Z,25.47
2018-11-27T09:33:08.217Z,16.03
2018-11-27T09:35:36.844Z,18.07
2018-11-27T09:38:06.441Z,20.67
2018-11-27T09:40:35.343Z,16.83
2018-11-27T09:43:04.013Z,15.23
2018-11-27T09:45:32.383Z,19.93
2018-11-27T09:48:00.957Z,17.13
2018-11-27T09:50:29.323Z,15.93
2018-11-27T09:52:57.716Z,16.17
2018-11-27T09:55:27.031Z,58.97
2018-11-27T09:57:59.027Z,44.30
2018-11-27T10:00:27.830Z,23.00
2018-11-27T10:02:57.504Z,19.40
2018-11-27T10:05:26.202Z,15.07
2018-11-27T10:07:54.938Z,15.27
2018-11-27T10:10:24.120Z,17.57
2018-11-27T10:12:52.752Z,13.70
2018-11-27T10:15:27.000Z,15.87
2018-11-27T10:17:57.553Z,17.47
2018-11-27T10:20:35.383Z,16.83
2018-11-27T10:23:03.840Z,36.77
2018-11-27T10:25:32.440Z,21.30
2018-11-27T10:28:00.743Z,19.33
2018-11-27T10:30:29.440Z,20.53
2018-11-27T10:32:58.677Z,18.43
2018-11-27T10:35:34.221Z,17.07
2018-11-27T10:38:02.564Z,18.30
2018-11-27T10:40:30.906Z,16.40
2018-11-27T10:42:59.387Z,17.77
2018-11-27T10:45:27.973Z,16.37
2018-11-27T10:47:56.886Z,16.03
2018-11-27T10:50:25.236Z,23.33
2018-11-27T10:52:55.004Z,16.80
2018-11-27T10:55:24.199Z,17.93
2018-11-27T10:57:59.343Z,18.50
2018-11-27T11:00:33.317Z,16.33
2018-11-27T11:04:05.751Z,15.07
2018-11-27T11:06:40.962Z,17.97
2018-11-27T11:09:09.913Z,19.53
2018-11-27T11:11:39.019Z,109.50
2018-11-27T11:14:07.765Z,44.20
2018-11-27T11:16:36.181Z,19.47
2018-11-27T11:19:04.841Z,19.43
2018-11-27T11:21:33.367Z,22.70
2018-11-27T11:24:01.874Z,22.27
2018-11-27T11:26:30.342Z,23.30
2018-11-27T11:28:58.763Z,24.77
2018-11-27T11:31:27.958Z,23.53
2018-11-27T11:33:56.378Z,25.10
2018-11-27T11:36:24.745Z,24.67
2018-11-27T11:38:53.167Z,24.80
2018-11-27T11:41:21.575Z,25.50
2018-11-27T11:43:49.909Z,24.03
2018-11-27T11:46:19.428Z,26.00
2018-11-27T11:48:48.194Z,29.60
2018-11-27T11:51:16.569Z,30.37
2018-11-27T11:53:46.008Z,25.83
2018-11-27T11:56:14.861Z,26.00
2018-11-27T11:58:44.013Z,26.73
2018-11-27T12:01:12.783Z,26.77
2018-11-27T12:03:41.167Z,24.67
2018-11-27T12:06:09.703Z,26.73
2018-11-27T12:08:39.302Z,26.80
2018-11-27T12:11:07.997Z,27.00
2018-11-27T12:13:36.444Z,28.60
2018-11-27T12:16:05.176Z,26.27
2018-11-27T12:18:34.187Z,30.07
2018-11-27T12:21:03.047Z,26.60
2018-11-27T12:23:31.504Z,24.67
2018-11-27T12:26:00.165Z,29.30
2018-11-27T12:28:28.917Z,26.43
2018-11-27T12:30:57.298Z,27.47
2018-11-27T12:33:25.869Z,26.87
2018-11-27T12:35:54.422Z,27.17
2018-11-27T12:38:22.750Z,24.20
2018-11-27T12:40:51.149Z,23.10
2018-11-27T12:43:19.560Z,27.37
2018-11-27T12:45:47.979Z,20.97
2018-11-27T12:48:16.656Z,24.20
2018-11-27T12:50:47.738Z,22.83
2018-11-27T12:53:17.263Z,22.90
2018-11-27T12:55:46.917Z,21.53
2018-11-27T12:58:15.273Z,25.27
2018-11-27T13:00:43.592Z,24.10
2018-11-27T13:03:12.041Z,21.23
2018-11-27T13:05:42.640Z,21.60
2018-11-27T13:08:13.728Z,24.93
2018-11-27T13:10:42.202Z,21.03
2018-11-27T13:13:10.686Z,23.47
2018-11-27T13:15:40.206Z,24.97
2018-11-27T13:18:09.395Z,21.73
2018-11-27T13:20:38.258Z,21.27
2018-11-27T13:23:07.181Z,22.70
2018-11-27T13:25:36.085Z,24.67
2018-11-27T13:28:04.707Z,20.13
2018-11-27T13:30:41.397Z,22.70
2018-11-27T13:33:13.219Z,26.23
2018-11-27T13:36:10.002Z,21.70
2018-11-27T13:38:39.444Z,21.60
2018-11-27T13:41:08.258Z,22.67
2018-11-27T13:43:36.729Z,23.63
2018-11-27T13:46:06.049Z,21.20
2018-11-27T13:48:35.986Z,23.10
2018-11-27T13:51:04.492Z,22.67
2018-11-27T13:53:33.686Z,31.50
2018-11-27T13:56:02.302Z,23.43
2018-11-27T13:58:31.201Z,23.57
2018-11-27T14:00:59.621Z,22.53
2018-11-27T14:03:28.240Z,21.73
2018-11-27T14:05:57.149Z,23.27
2018-11-27T14:08:25.697Z,20.37
2018-11-27T14:10:54.230Z,21.67
2018-11-27T14:13:22.723Z,21.30
2018-11-27T14:15:51.094Z,21.33
2018-11-27T14:18:22.364Z,21.93
2018-11-27T14:20:53.845Z,22.70
2018-11-27T14:23:22.779Z,22.57
2018-11-27T14:25:56.688Z,19.90
2018-11-27T14:28:25.401Z,17.50
2018-11-27T14:30:54.479Z,19.03
2018-11-27T14:33:23.563Z,19.27
2018-11-27T14:35:53.408Z,16.67
2018-11-27T14:38:22.287Z,17.23
2018-11-27T14:40:50.700Z,19.63
2018-11-27T14:43:20.407Z,17.30
2018-11-27T14:45:49.043Z,16.37
2018-11-27T14:48:19.196Z,17.97
2018-11-27T14:50:47.516Z,18.17
2018-11-27T14:53:15.844Z,16.63
2018-11-27T14:55:44.257Z,18.10
2018-11-27T14:58:15.056Z,14.47
2018-11-27T15:00:41.255Z,18.10
2018-11-27T15:03:09.938Z,15.37
2018-11-27T15:05:45.447Z,15.83
2018-11-27T15:08:14.142Z,15.43
2018-11-27T15:10:42.597Z,16.93
2018-11-27T15:13:12.270Z,19.57
2018-11-27T15:15:40.777Z,17.90
2018-11-27T15:18:09.154Z,16.30
2018-11-27T15:20:38.944Z,18.33
2018-11-27T15:23:07.400Z,16.17
2018-11-27T15:25:36.090Z,16.87
2018-11-27T15:28:05.934Z,12.27
2018-11-27T15:30:37.912Z,14.77
2018-11-27T15:33:07.069Z,16.40
2018-11-27T15:35:36.981Z,15.50
2018-11-27T15:38:12.756Z,17.67
2018-11-27T15:40:41.143Z,17.70
2018-11-27T15:43:09.523Z,16.57
2018-11-27T15:45:37.773Z,15.30
2018-11-27T15:48:08.162Z,15.87
2018-11-27T15:50:36.474Z,19.17
2018-11-27T15:53:05.361Z,16.77
2018-11-27T15:55:35.155Z,18.30
2018-11-27T15:58:08.881Z,16.97
2018-11-27T16:00:37.294Z,18.80
2018-11-27T16:03:07.517Z,18.67
2018-11-27T16:05:37.616Z,20.17
2018-11-27T16:08:06.924Z,19.07
2018-11-27T16:10:35.535Z,16.67
2018-11-27T16:13:04.196Z,18.40
2018-11-27T16:15:32.856Z,19.57
2018-11-27T16:18:01.462Z,16.60
2018-11-27T16:20:29.887Z,16.10
2018-11-27T16:22:58.288Z,16.73
2018-11-27T16:25:26.682Z,18.77
2018-11-27T16:27:55.047Z,17.00
2018-11-27T16:30:26.621Z,19.30
2018-11-27T16:32:55.413Z,18.00
2018-11-27T16:35:24.208Z,16.50
2018-11-27T16:38:00.904Z,19.53
2018-11-27T16:40:31.041Z,17.93
2018-11-27T16:42:59.451Z,18.83
2018-11-27T16:45:28.062Z,18.90
2018-11-27T16:47:56.558Z,17.23
2018-11-27T16:50:24.857Z,21.57
2018-11-27T16:52:53.329Z,19.73
2018-11-27T16:55:22.911Z,21.23
2018-11-27T16:57:51.359Z,20.30
2018-11-27T17:00:25.835Z,17.60
2018-11-27T17:02:55.612Z,23.50
2018-11-27T17:05:24.113Z,21.10
2018-11-27T17:07:52.485Z,22.40
2018-11-27T17:10:25.028Z,23.07
2018-11-27T17:12:56.478Z,19.33
2018-11-27T17:15:25.916Z,21.20
2018-11-27T17:17:54.439Z,20.53
2018-11-27T17:20:30.882Z,22.17
2018-11-27T17:23:01.723Z,22.47
2018-11-27T17:25:30.157Z,21.43
2018-11-27T17:28:01.787Z,19.90
2018-11-27T17:30:35.618Z,18.27
2018-11-27T17:33:06.841Z,17.63
2018-11-27T17:35:35.340Z,24.37
2018-11-27T17:38:04.024Z,40.00
2018-11-27T17:40:33.128Z,26.50
2018-11-27T17:43:03.215Z,20.40
2018-11-27T17:45:31.596Z,17.80
2018-11-27T17:47:59.978Z,21.43
2018-11-27T17:50:28.391Z,22.13
2018-11-27T17:52:57.379Z,20.33
2018-11-27T17:55:25.817Z,17.23
2018-11-27T17:57:54.729Z,15.90
2018-11-27T18:00:27.599Z,16.87
2018-11-27T18:03:00.039Z,16.03
2018-11-27T18:05:28.456Z,14.57
2018-11-27T18:07:56.951Z,16.07
2018-11-27T18:10:25.378Z,16.00
2018-11-27T18:12:54.696Z,13.10
2018-11-27T18:15:26.245Z,15.80
2018-11-27T18:17:54.789Z,14.60
2018-11-27T18:20:23.197Z,14.13
2018-11-27T18:22:51.618Z,13.20
2018-11-27T18:25:21.002Z,12.17
2018-11-27T18:27:50.040Z,14.03
2018-11-27T18:30:20.671Z,12.20
2018-11-27T18:32:50.444Z,11.60
2018-11-27T18:35:21.260Z,12.90
2018-11-27T18:37:50.054Z,15.93
2018-11-27T18:40:18.445Z,14.10
2018-11-27T18:42:47.088Z,13.90
2018-11-27T18:45:16.733Z,13.90
2018-11-27T18:47:45.246Z,11.30
2018-11-27T18:50:13.809Z,31.57
2018-11-27T18:52:42.961Z,27.90
2018-11-27T18:55:14.346Z,14.97
2018-11-27T18:57:43.507Z,21.80
2018-11-27T19:00:21.435Z,30.67
2018-11-27T19:02:56.465Z,18.80
2018-11-27T19:05:24.889Z,13.57
2018-11-27T19:07:53.341Z,13.53
2018-11-27T19:10:30.817Z,12.93
2018-11-27T19:13:00.816Z,12.03
2018-11-27T19:15:33.123Z,10.27
2018-11-27T19:18:03.459Z,11.93
2018-11-27T19:20:33.078Z,15.03
2018-11-27T19:23:01.604Z,12.47
2018-11-27T19:25:30.062Z,10.17
2018-11-27T19:27:58.935Z,12.03
2018-11-27T19:30:32.102Z,11.53
2018-11-27T19:32:56.781Z,10.33
2018-11-27T19:35:25.643Z,11.60
2018-11-27T19:37:54.096Z,15.37
2018-11-27T19:40:22.583Z,13.83
2018-11-27T19:42:51.783Z,14.63
2018-11-27T19:45:26.092Z,14.23
2018-11-27T19:47:55.309Z,12.63
2018-11-27T19:50:24.106Z,11.87
2018-11-27T19:52:55.046Z,12.63
2018-11-27T19:55:23.558Z,13.67
2018-11-27T19:57:52.565Z,11.37
2018-11-27T20:00:22.192Z,12.97
2018-11-27T20:02:51.091Z,11.80
2018-11-27T20:05:21.622Z,13.93
2018-11-27T20:07:50.911Z,12.43
2018-11-27T20:10:19.635Z,12.27
2018-11-27T20:12:48.420Z,14.37
2018-11-27T20:15:20.971Z,14.40
2018-11-27T20:17:50.284Z,10.97
2018-11-27T20:20:20.226Z,13.80
2018-11-27T20:22:49.594Z,11.07
2018-11-27T20:25:20.608Z,13.87
2018-11-27T20:27:49.029Z,11.60
2018-11-27T20:30:20.440Z,10.20
2018-11-27T20:32:56.829Z,13.37
2018-11-27T20:35:27.086Z,14.10
2018-11-27T20:37:56.048Z,18.80
2018-11-27T20:40:24.746Z,33.23
2018-11-27T20:42:54.163Z,17.83
2018-11-27T20:45:24.170Z,15.77
2018-11-27T20:48:01.641Z,14.50
2018-11-27T20:50:30.195Z,15.20
2018-11-27T20:52:59.623Z,9.57
2018-11-27T20:55:28.088Z,13.57
2018-11-27T20:57:58.683Z,11.80
2018-11-27T21:00:33.082Z,14.30
2018-11-27T21:03:02.554Z,11.20
2018-11-27T21:05:31.190Z,12.57
2018-11-27T21:07:59.856Z,11.97
2018-11-27T21:10:28.314Z,11.93
2018-11-27T21:12:57.274Z,13.47
2018-11-27T21:15:26.673Z,12.13
2018-11-27T21:17:55.266Z,11.50
2018-11-27T21:20:24.033Z,13.80
2018-11-27T21:22:52.587Z,13.97
2018-11-27T21:25:24.261Z,12.27
2018-11-27T21:28:01.308Z,16.43
2018-11-27T21:30:29.927Z,13.60
2018-11-27T21:32:58.415Z,13.53
2018-11-27T21:35:29.641Z,11.30
2018-11-27T21:37:58.128Z,11.53
2018-11-27T21:40:27.149Z,14.67
2018-11-27T21:42:56.210Z,13.40
2018-11-27T21:45:26.615Z,13.67
2018-11-27T21:47:57.174Z,16.33
2018-11-27T21:50:31.901Z,14.60
2018-11-27T21:53:02.192Z,13.33
2018-11-27T21:55:30.989Z,12.37
2018-11-27T21:57:59.726Z,13.13
2018-11-27T22:00:28.881Z,11.93
2018-11-27T22:02:57.539Z,11.00
2018-11-27T22:05:26.618Z,13.30
2018-11-27T22:07:55.152Z,12.17
2018-11-27T22:10:25.808Z,12.53
2018-11-27T22:12:58.319Z,12.77
2018-11-27T22:15:29.382Z,13.13
2018-11-27T22:17:59.840Z,12.60
2018-11-27T22:20:29.928Z,16.13
2018-11-27T22:22:59.452Z,13.73
2018-11-27T22:25:31.615Z,13.43
2018-11-27T22:28:19.488Z,15.67
2018-11-27T22:30:53.172Z,13.33
2018-11-27T22:33:35.584Z,15.83
2018-11-27T22:36:22.531Z,13.53
2018-11-27T22:41:52.377Z,11.87
2018-11-27T22:44:20.868Z,12.13
2018-11-27T22:46:49.276Z,12.10
2018-11-27T22:49:18.513Z,11.90
2018-11-27T22:51:46.873Z,11.53
2018-11-27T22:54:15.322Z,12.97
2018-11-27T22:56:46.087Z,10.30
2018-11-27T22:59:16.016Z,10.03
2018-11-27T23:01:45.587Z,9.83
2018-11-27T23:04:15.266Z,10.43
2018-11-27T23:06:46.133Z,10.27
2018-11-27T23:09:21.183Z,11.37
2018-11-27T23:11:56.437Z,11.53
2018-11-27T23:14:28.306Z,9.77
2018-11-27T23:16:56.925Z,8.67
2018-11-27T23:19:27.912Z,7.77
2018-11-27T23:21:57.129Z,8.27
2018-11-27T23:24:25.922Z,9.77
2018-11-27T23:26:55.908Z,12.67
2018-11-27T23:29:25.094Z,9.97
2018-11-27T23:31:53.808Z,9.17
2018-11-27T23:34:22.653Z,8.73
2018-11-27T23:36:51.579Z,8.50
2018-11-27T23:39:21.418Z,8.33
2018-11-27T23:41:53.304Z,8.70
2018-11-27T23:44:21.964Z,9.70
2018-11-27T23:46:50.708Z,8.73
2018-11-27T23:49:19.293Z,8.00
2018-11-27T23:51:48.065Z,8.23
2018-11-27T23:54:16.862Z,9.23
2018-11-27T23:56:48.715Z,8.07
2018-11-27T23:59:15.926Z,8.80
